Time;durP1;ratioP1;P1;durP2;ratioP2;P2;SDS_P1;SDS_P2;PMS_P1;PMS_P2;Temp;Humidity;BMP_temperature;BMP_pressure;BME280_temperature;BME280_humidity;BME280_pressure;Samples;Min_cycle;Max_cycle;Signal;HPM_P1;HPM_P2
2022/01/24 00:00:21;;;;;;;;;;;20.20;33.40;;;;;;685711;28;855;-80
2022/01/24 00:00:41;;;;;;;;;;;20.20;33.60;;;;;;685758;28;1006;-82
2022/01/24 00:01:04;;;;;;;;;;;20.20;33.50;;;;;;685726;28;1502;-81
2022/01/24 00:01:25;;;;;;;;;;;20.20;33.50;;;;;;685757;28;890;-81
2022/01/24 00:01:47;;;;;;;;;;;20.20;33.50;;;;;;683834;28;1974;-80
2022/01/24 00:02:08;;;;;;;;;;;20.20;33.50;;;;;;685763;28;807;-80
2022/01/24 00:02:30;;;;;;;;;;;20.20;33.60;;;;;;685891;28;866;-80
2022/01/24 00:02:50;;;;;;;;;;;20.20;33.60;;;;;;682941;28;945;-81
2022/01/24 00:03:11;;;;;;;;;;;20.20;33.50;;;;;;683019;29;922;-82
2022/01/24 00:03:31;;;;;;;;;;;20.20;33.50;;;;;;683783;28;803;-81
2022/01/24 00:04:02;;;;;;;;;;;20.20;33.50;;;;;;685779;28;846;-80
2022/01/24 00:04:23;;;;;;;;;;;20.20;33.60;;;;;;685613;28;1203;-81
2022/01/24 00:04:44;;;;;;;;;;;20.20;33.50;;;;;;687392;28;1334;-81
2022/01/24 00:05:05;;;;;;;;;;;20.20;33.60;;;;;;688447;28;740;-80
2022/01/24 00:05:25;;;;;;;;;;;20.20;33.60;;;;;;688481;28;835;-80
2022/01/24 00:05:46;;;;;;;;;;;20.20;33.60;;;;;;688254;28;1368;-81
2022/01/24 00:06:10;;;;;;;;;;;20.10;33.50;;;;;;688274;28;818;-80
2022/01/24 00:06:32;;;;;;;;;;;20.20;33.50;;;;;;686076;28;819;-80
2022/01/24 00:06:53;;;;;;;;;;;20.20;33.60;;;;;;688548;28;1207;-81
2022/01/24 00:07:17;;;;;;;;;;;20.10;33.60;;;;;;685586;28;1227;-80
2022/01/24 00:07:38;;;;;;;;;;;20.20;33.60;;;;;;682835;28;846;-82
2022/01/24 00:07:58;;;;;;;;;;;20.10;33.70;;;;;;682952;29;807;-81
2022/01/24 00:08:20;;;;;;;;;;;20.20;33.60;;;;;;683029;28;905;-81
2022/01/24 00:08:41;;;;;;;;;;;20.10;33.70;;;;;;683049;29;821;-82
2022/01/24 00:09:03;;;;;;;;;;;20.20;33.60;;;;;;684220;28;862;-84
2022/01/24 00:09:24;;;;;;;;;;;20.20;33.70;;;;;;685717;28;1283;-79
2022/01/24 00:09:44;;;;;;;;;;;20.10;33.60;;;;;;685948;28;786;-79
2022/01/24 00:10:08;;;;;;;;;;;20.10;33.60;;;;;;686321;28;912;-80
2022/01/24 00:10:30;;;;;;;;;;;20.10;33.60;;;;;;685900;28;866;-82
2022/01/24 00:10:52;;;;;;;;;;;20.20;33.80;;;;;;685772;28;802;-82
2022/01/24 00:11:17;;;;;;;;;;;20.10;33.70;;;;;;685880;28;1410;-81
2022/01/24 00:11:44;;;;;;;;;;;20.20;33.80;;;;;;682964;29;1189;-80
2022/01/24 00:12:16;;;;;;;;;;;20.20;33.80;;;;;;685710;28;834;-81
2022/01/24 00:12:49;;;;;;;;;;;20.20;33.70;;;;;;685786;28;1358;-81
2022/01/24 00:13:50;;;;;;;;;;;20.10;33.70;;;;;;685714;28;889;-79
2022/01/24 00:14:49;;;;;;;;;;;20.10;33.70;;;;;;685876;28;661;-81
2022/01/24 00:15:58;;;;;;;;;;;20.10;33.70;;;;;;685923;28;716;-82
2022/01/24 00:16:34;;;;;;;;;;;20.10;33.70;;;;;;685695;28;1160;-82
2022/01/24 00:17:03;;;;;;;;;;;20.10;33.70;;;;;;685883;28;924;-81
2022/01/24 00:17:39;;;;;;;;;;;20.10;33.70;;;;;;685945;28;811;-81
2022/01/24 00:18:12;;;;;;;;;;;20.10;33.70;;;;;;686379;28;921;-81
2022/01/24 00:26:41;;;;;;;;;;;20.10;33.80;;;;;;685890;28;897;-82
2022/01/24 00:26:59;;;;;;;;;;;20.00;34.00;;;;;;685614;28;672;-79
2022/01/24 00:27:20;;;;;;;;;;;20.10;34.10;;;;;;685631;28;897;-81
2022/01/24 00:27:40;;;;;;;;;;;20.00;34.10;;;;;;685604;28;910;-81
2022/01/24 00:28:01;;;;;;;;;;;20.10;34.10;;;;;;682563;29;1340;-81
2022/01/24 00:28:21;;;;;;;;;;;20.10;34.20;;;;;;682932;29;870;-81
2022/01/24 00:28:42;;;;;;;;;;;20.00;34.10;;;;;;682874;29;812;-82
2022/01/24 00:29:02;;;;;;;;;;;20.00;34.10;;;;;;682971;29;823;-82
2022/01/24 00:29:24;;;;;;;;;;;20.10;34.20;;;;;;682830;28;1517;-81
2022/01/24 00:29:44;;;;;;;;;;;20.00;34.20;;;;;;683232;28;1435;-81
2022/01/24 00:30:05;;;;;;;;;;;20.00;34.20;;;;;;685224;28;945;-82
2022/01/24 00:30:26;;;;;;;;;;;20.10;34.20;;;;;;685536;28;1211;-82
2022/01/24 00:30:47;;;;;;;;;;;20.00;34.10;;;;;;685699;28;768;-82
2022/01/24 00:31:07;;;;;;;;;;;20.00;34.30;;;;;;685592;28;1334;-82
2022/01/24 00:31:28;;;;;;;;;;;20.00;34.20;;;;;;685723;28;862;-82
2022/01/24 00:31:49;;;;;;;;;;;20.10;34.30;;;;;;685674;28;874;-81
2022/01/24 00:32:10;;;;;;;;;;;20.10;34.40;;;;;;682468;29;878;-81
2022/01/24 00:32:30;;;;;;;;;;;20.10;34.40;;;;;;682995;29;861;-81
2022/01/24 00:32:51;;;;;;;;;;;20.00;34.30;;;;;;682949;29;838;-81
2022/01/24 00:33:11;;;;;;;;;;;20.10;34.30;;;;;;682914;28;1366;-82
2022/01/24 00:33:32;;;;;;;;;;;20.00;34.30;;;;;;682946;29;961;-81
2022/01/24 00:33:52;;;;;;;;;;;20.10;34.30;;;;;;683276;28;815;-81
2022/01/24 00:34:14;;;;;;;;;;;20.10;34.40;;;;;;685553;28;977;-81
2022/01/24 00:34:35;;;;;;;;;;;20.10;34.30;;;;;;685680;28;1034;-82
2022/01/24 00:34:55;;;;;;;;;;;20.10;34.50;;;;;;685591;28;969;-82
2022/01/24 00:35:17;;;;;;;;;;;20.10;34.30;;;;;;685497;28;1428;-82
2022/01/24 00:35:37;;;;;;;;;;;20.10;34.40;;;;;;682455;29;1376;-81
2022/01/24 00:35:58;;;;;;;;;;;20.10;34.40;;;;;;683074;29;791;-82
2022/01/24 00:36:18;;;;;;;;;;;20.10;34.30;;;;;;684841;28;1486;-82
2022/01/24 00:36:40;;;;;;;;;;;20.10;34.40;;;;;;685540;28;830;-84
2022/01/24 00:37:01;;;;;;;;;;;20.10;34.50;;;;;;685555;28;931;-83
2022/01/24 00:37:21;;;;;;;;;;;20.00;34.40;;;;;;685651;28;787;-83
2022/01/24 00:37:42;;;;;;;;;;;20.10;34.40;;;;;;685566;28;799;-82
2022/01/24 00:38:03;;;;;;;;;;;20.10;34.30;;;;;;685707;28;814;-85
2022/01/24 00:38:23;;;;;;;;;;;20.10;34.30;;;;;;685635;28;807;-82
2022/01/24 00:38:44;;;;;;;;;;;20.10;34.30;;;;;;685611;28;799;-82
2022/01/24 00:39:05;;;;;;;;;;;20.00;34.20;;;;;;685680;28;918;-82
2022/01/24 00:39:26;;;;;;;;;;;20.10;34.20;;;;;;685565;28;870;-81
2022/01/24 00:39:47;;;;;;;;;;;20.10;34.30;;;;;;685548;28;810;-84
2022/01/24 00:40:08;;;;;;;;;;;20.10;34.30;;;;;;682430;29;1222;-84
2022/01/24 00:40:33;;;;;;;;;;;20.00;34.40;;;;;;682906;29;1337;-85
2022/01/24 00:40:54;;;;;;;;;;;20.00;34.40;;;;;;682873;29;1036;-84
2022/01/24 00:41:18;;;;;;;;;;;20.10;34.60;;;;;;682937;29;832;-86
2022/01/24 00:41:55;;;;;;;;;;;20.10;34.70;;;;;;682772;29;1911;-85
2022/01/24 00:42:32;;;;;;;;;;;20.10;34.70;;;;;;682847;29;1220;-85
2022/01/24 00:42:58;;;;;;;;;;;20.10;35.00;;;;;;682844;29;1590;-84
2022/01/24 00:45:03;;;;;;;;;;;20.10;34.90;;;;;;683284;28;1200;-83
2022/01/24 00:46:17;;;;;;;;;;;20.10;34.90;;;;;;683344;28;1374;-82
2022/01/24 00:46:18;;;;;;;;;;;20.10;34.70;;;;;;680453;28;1234;-85
2022/01/24 00:46:47;;;;;;;;;;;20.10;36.00;;;;;;685605;28;1453;-84
2022/01/24 00:47:15;;;;;;;;;;;20.10;34.80;;;;;;685481;28;1229;-83
2022/01/24 00:49:43;;;;;;;;;;;20.10;34.70;;;;;;682928;29;925;-83
2022/01/24 00:54:01;;;;;;;;;;;20.10;34.70;;;;;;682864;29;1060;-83
2022/01/24 00:54:57;;;;;;;;;;;20.10;34.70;;;;;;680242;29;1180;-84
2022/01/24 00:55:17;;;;;;;;;;;20.10;34.60;;;;;;680124;29;1097;-81
2022/01/24 00:55:39;;;;;;;;;;;20.10;34.60;;;;;;680313;29;886;-84
2022/01/24 00:55:59;;;;;;;;;;;20.10;34.60;;;;;;680449;29;811;-84
2022/01/24 00:56:20;;;;;;;;;;;20.10;34.50;;;;;;682472;29;938;-85
2022/01/24 00:56:40;;;;;;;;;;;20.10;34.50;;;;;;682951;29;862;-82
2022/01/24 00:57:01;;;;;;;;;;;20.10;34.50;;;;;;683082;29;827;-82
2022/01/24 00:57:22;;;;;;;;;;;20.10;34.50;;;;;;682928;29;791;-81
2022/01/24 00:57:42;;;;;;;;;;;20.10;34.50;;;;;;682939;29;846;-83
2022/01/24 00:58:03;;;;;;;;;;;20.00;34.50;;;;;;682952;29;812;-85
2022/01/24 00:58:23;;;;;;;;;;;20.10;34.50;;;;;;680186;29;1470;-83
2022/01/24 00:58:44;;;;;;;;;;;20.00;34.40;;;;;;680239;29;1137;-81
2022/01/24 00:59:05;;;;;;;;;;;20.10;34.50;;;;;;680273;29;1217;-85
2022/01/24 00:59:28;;;;;;;;;;;20.00;34.50;;;;;;680165;29;851;-81
2022/01/24 00:59:49;;;;;;;;;;;20.00;34.50;;;;;;680450;29;1120;-83
2022/01/24 01:00:10;;;;;;;;;;;20.00;34.40;;;;;;680929;29;1329;-83
2022/01/24 01:00:31;;;;;;;;;;;20.00;34.40;;;;;;677697;29;1144;-83
2022/01/24 01:00:51;;;;;;;;;;;20.00;34.40;;;;;;676970;29;803;-81
2022/01/24 01:01:12;;;;;;;;;;;20.00;34.50;;;;;;675132;29;796;-83
2022/01/24 01:01:33;;;;;;;;;;;20.00;34.50;;;;;;673249;29;1899;-83
2022/01/24 01:01:54;;;;;;;;;;;20.00;34.50;;;;;;675512;29;1330;-85
2022/01/24 01:02:17;;;;;;;;;;;20.00;34.50;;;;;;675417;29;895;-84
2022/01/24 01:02:38;;;;;;;;;;;20.00;34.50;;;;;;675588;29;1177;-84
2022/01/24 01:02:59;;;;;;;;;;;20.00;34.50;;;;;;677700;28;1320;-82
2022/01/24 01:03:19;;;;;;;;;;;20.00;34.40;;;;;;678409;29;777;-84
2022/01/24 01:03:40;;;;;;;;;;;20.00;34.40;;;;;;680039;28;1442;-82
2022/01/24 01:04:01;;;;;;;;;;;20.00;34.40;;;;;;680896;28;1501;-84
2022/01/24 01:04:26;;;;;;;;;;;20.00;34.60;;;;;;680316;29;846;-82
2022/01/24 01:06:05;;;;;;;;;;;20.00;34.50;;;;;;680336;29;629;-83
2022/01/24 01:06:25;;;;;;;;;;;20.00;34.50;;;;;;680315;29;851;-83
2022/01/24 01:06:46;;;;;;;;;;;20.00;34.60;;;;;;680345;29;812;-84
2022/01/24 01:07:07;;;;;;;;;;;20.00;34.50;;;;;;680256;29;839;-84
2022/01/24 01:18:14;;;;;;;;;;;19.90;34.60;;;;;;691009;28;617;-85
2022/01/24 01:18:35;;;;;;;;;;;19.90;34.50;;;;;;691113;28;862;-85
2022/01/24 01:18:55;;;;;;;;;;;20.00;34.70;;;;;;690972;28;870;-85
2022/01/24 01:19:16;;;;;;;;;;;19.90;34.60;;;;;;690382;28;1178;-85
2022/01/24 01:19:37;;;;;;;;;;;19.90;34.60;;;;;;691093;28;802;-83
2022/01/24 01:19:58;;;;;;;;;;;19.90;34.50;;;;;;691123;28;807;-85
2022/01/24 01:20:24;;;;;;;;;;;19.90;34.50;;;;;;691445;28;960;-86
2022/01/24 01:21:15;;;;;;;;;;;19.90;35.80;;;;;;685646;28;1361;-86
2022/01/24 01:21:35;;;;;;;;;;;19.90;34.70;;;;;;686310;28;1895;-83
2022/01/24 01:21:56;;;;;;;;;;;19.90;34.60;;;;;;686130;28;831;-85
2022/01/24 01:22:17;;;;;;;;;;;20.00;34.70;;;;;;686279;28;834;-85
2022/01/24 01:22:38;;;;;;;;;;;19.90;34.70;;;;;;686361;28;1245;-85
2022/01/24 01:22:58;;;;;;;;;;;19.90;34.60;;;;;;686130;28;945;-85
2022/01/24 01:23:19;;;;;;;;;;;19.90;34.60;;;;;;686588;28;826;-85
2022/01/24 01:23:51;;;;;;;;;;;19.90;34.60;;;;;;686183;28;788;-86
2022/01/24 01:24:12;;;;;;;;;;;19.90;34.60;;;;;;685997;28;1048;-86
2022/01/24 01:24:38;;;;;;;;;;;19.90;34.70;;;;;;684283;28;875;-84
2022/01/24 01:24:59;;;;;;;;;;;19.90;34.60;;;;;;685949;28;1289;-85
2022/01/24 01:25:19;;;;;;;;;;;19.90;34.50;;;;;;686196;28;862;-86
2022/01/24 01:25:42;;;;;;;;;;;19.90;34.50;;;;;;686108;28;883;-84
2022/01/24 01:26:07;;;;;;;;;;;19.90;34.60;;;;;;683480;28;1179;-85
2022/01/24 01:26:43;;;;;;;;;;;19.90;34.60;;;;;;683563;29;822;-85
2022/01/24 01:27:10;;;;;;;;;;;19.90;34.50;;;;;;681251;28;1248;-84
2022/01/24 01:27:39;;;;;;;;;;;19.90;34.50;;;;;;682110;29;870;-83
2022/01/24 01:28:00;;;;;;;;;;;19.90;34.60;;;;;;685694;28;858;-84
2022/01/24 01:28:23;;;;;;;;;;;19.90;34.50;;;;;;686521;28;1216;-85
2022/01/24 01:28:46;;;;;;;;;;;19.90;34.50;;;;;;686251;28;1345;-84
2022/01/24 01:29:16;;;;;;;;;;;19.90;34.50;;;;;;685920;28;1358;-82
2022/01/24 01:30:20;;;;;;;;;;;19.90;34.50;;;;;;684977;28;810;-85
2022/01/24 01:30:45;;;;;;;;;;;19.90;34.50;;;;;;683644;28;1353;-82
2022/01/24 01:31:12;;;;;;;;;;;19.90;34.60;;;;;;683675;28;1146;-84
2022/01/24 01:32:18;;;;;;;;;;;19.90;34.40;;;;;;683581;29;658;-83
2022/01/24 01:33:08;;;;;;;;;;;19.90;34.50;;;;;;683333;29;918;-82
2022/01/24 01:36:22;;;;;;;;;;;19.90;34.40;;;;;;685950;28;646;-82
2022/01/24 01:52:38;;;;;;;;;;;19.80;34.20;;;;;;683436;29;674;-81
2022/01/24 01:55:14;;;;;;;;;;;19.80;34.20;;;;;;672985;29;1143;-82
2022/01/24 01:55:39;;;;;;;;;;;19.80;34.20;;;;;;675487;29;1281;-84
2022/01/24 01:55:59;;;;;;;;;;;19.80;34.20;;;;;;675540;29;1249;-84
2022/01/24 01:56:20;;;;;;;;;;;19.80;35.30;;;;;;672763;29;1170;-83
2022/01/24 01:56:41;;;;;;;;;;;19.80;34.20;;;;;;672813;29;1236;-84
2022/01/24 01:57:02;;;;;;;;;;;19.80;34.30;;;;;;673059;29;852;-82
2022/01/24 01:57:23;;;;;;;;;;;19.80;34.30;;;;;;671983;29;1245;-82
2022/01/24 01:57:43;;;;;;;;;;;19.80;34.30;;;;;;672845;29;1225;-81
2022/01/24 01:58:19;;;;;;;;;;;19.80;34.30;;;;;;673006;29;828;-81
2022/01/24 01:58:39;;;;;;;;;;;19.80;34.20;;;;;;676224;29;1372;-81
2022/01/24 01:59:00;;;;;;;;;;;19.80;34.20;;;;;;676954;29;1218;-81
2022/01/24 01:59:20;;;;;;;;;;;19.80;34.20;;;;;;676746;29;891;-81
2022/01/24 01:59:41;;;;;;;;;;;19.80;34.20;;;;;;674838;29;577;-81
2022/01/24 02:00:03;;;;;;;;;;;19.80;34.30;;;;;;677353;29;1512;-80
2022/01/24 02:00:24;;;;;;;;;;;19.80;34.30;;;;;;677721;29;1197;-81
2022/01/24 02:00:46;;;;;;;;;;;19.80;34.30;;;;;;676005;29;863;-81
2022/01/24 02:01:09;;;;;;;;;;;19.80;34.30;;;;;;676117;29;1009;-84
2022/01/24 02:01:30;;;;;;;;;;;19.80;34.20;;;;;;676225;29;1348;-82
2022/01/24 02:01:51;;;;;;;;;;;19.80;34.20;;;;;;675035;29;1944;-82
2022/01/24 02:02:12;;;;;;;;;;;19.80;34.40;;;;;;673671;29;1261;-83
2022/01/24 02:02:32;;;;;;;;;;;19.80;34.40;;;;;;673615;29;999;-82
2022/01/24 02:02:53;;;;;;;;;;;19.80;34.30;;;;;;676514;29;1398;-85
2022/01/24 02:03:14;;;;;;;;;;;19.80;34.30;;;;;;675556;29;883;-84
2022/01/24 02:03:35;;;;;;;;;;;19.80;34.20;;;;;;675676;29;1480;-83
2022/01/24 02:03:57;;;;;;;;;;;19.70;34.20;;;;;;672957;29;1409;-83
2022/01/24 02:04:18;;;;;;;;;;;19.80;34.40;;;;;;670790;29;1384;-85
2022/01/24 02:04:41;;;;;;;;;;;19.80;34.30;;;;;;670504;29;1083;-83
2022/01/24 02:05:02;;;;;;;;;;;19.80;34.40;;;;;;668028;29;1351;-82
2022/01/24 02:05:23;;;;;;;;;;;19.70;34.30;;;;;;668444;29;832;-84
2022/01/24 02:05:43;;;;;;;;;;;19.80;34.40;;;;;;668914;29;1376;-82
2022/01/24 02:06:04;;;;;;;;;;;19.80;34.30;;;;;;670491;29;1185;-83
2022/01/24 02:06:24;;;;;;;;;;;19.70;34.30;;;;;;670880;29;999;-84
2022/01/24 02:06:45;;;;;;;;;;;19.70;34.30;;;;;;670707;29;992;-84
2022/01/24 02:07:10;;;;;;;;;;;19.80;34.30;;;;;;673436;29;1303;-83
2022/01/24 02:07:30;;;;;;;;;;;19.70;35.50;;;;;;673714;29;946;-84
2022/01/24 02:07:52;;;;;;;;;;;19.70;34.30;;;;;;676278;29;1054;-80
2022/01/24 02:08:12;;;;;;;;;;;19.80;34.40;;;;;;677935;29;942;-79
2022/01/24 02:08:33;;;;;;;;;;;19.80;34.30;;;;;;677580;29;1314;-80
2022/01/24 02:08:59;;;;;;;;;;;19.80;34.40;;;;;;673665;29;1338;-81
2022/01/24 02:09:20;;;;;;;;;;;19.70;34.40;;;;;;674635;29;1163;-78
2022/01/24 02:09:43;;;;;;;;;;;19.70;34.40;;;;;;674478;29;847;-80
2022/01/24 02:10:03;;;;;;;;;;;19.80;34.40;;;;;;674904;29;1351;-80
2022/01/24 02:10:25;;;;;;;;;;;19.70;34.40;;;;;;671699;29;1340;-78
2022/01/24 02:10:45;;;;;;;;;;;19.70;34.40;;;;;;673524;29;851;-80
2022/01/24 02:11:11;;;;;;;;;;;19.70;34.40;;;;;;674527;29;1101;-81
2022/01/24 02:11:32;;;;;;;;;;;19.80;34.40;;;;;;674952;29;819;-78
2022/01/24 02:11:53;;;;;;;;;;;19.80;34.30;;;;;;674497;29;1096;-81
2022/01/24 02:12:14;;;;;;;;;;;19.70;34.40;;;;;;674764;29;1057;-78
2022/01/24 02:12:35;;;;;;;;;;;19.70;34.40;;;;;;672255;29;1504;-79
2022/01/24 02:12:56;;;;;;;;;;;19.70;34.40;;;;;;672025;29;983;-84
2022/01/24 02:13:17;;;;;;;;;;;19.70;34.30;;;;;;672363;29;907;-82
2022/01/24 02:13:38;;;;;;;;;;;19.70;34.30;;;;;;669891;29;1233;-83
2022/01/24 02:14:03;;;;;;;;;;;19.70;34.30;;;;;;671316;29;1623;-81
2022/01/24 02:14:30;;;;;;;;;;;19.70;34.40;;;;;;673622;29;1262;-81
2022/01/24 02:14:56;;;;;;;;;;;19.70;34.40;;;;;;674775;29;851;-80
2022/01/24 02:16:41;;;;;;;;;;;19.70;34.20;;;;;;679129;29;1007;-79
2022/01/24 02:17:07;;;;;;;;;;;19.70;34.30;;;;;;679269;29;1406;-81
2022/01/24 02:17:47;;;;;;;;;;;19.70;34.30;;;;;;679413;29;788;-79
2022/01/24 02:18:25;;;;;;;;;;;19.70;34.30;;;;;;679712;29;1532;-82
2022/01/24 02:18:54;;;;;;;;;;;19.70;34.20;;;;;;679219;29;1021;-82
2022/01/24 02:20:05;;;;;;;;;;;19.70;34.20;;;;;;679402;29;1322;-80
2022/01/24 02:21:41;;;;;;;;;;;19.70;34.00;;;;;;679938;29;1041;-81
2022/01/24 02:22:42;;;;;;;;;;;19.70;34.00;;;;;;682156;29;890;-81
2022/01/24 02:23:46;;;;;;;;;;;19.80;34.00;;;;;;686790;28;1573;-82
2022/01/24 02:23:48;;;;;;;;;;;19.70;34.00;;;;;;684854;29;874;-81
2022/01/24 02:24:09;;;;;;;;;;;19.70;33.90;;;;;;683824;29;1638;-83
2022/01/24 02:24:41;;;;;;;;;;;19.70;33.90;;;;;;684556;29;1443;-84
2022/01/24 02:25:07;;;;;;;;;;;19.70;34.00;;;;;;682296;29;1243;-80
2022/01/24 02:25:30;;;;;;;;;;;19.70;34.00;;;;;;679382;29;1242;-81
2022/01/24 02:25:51;;;;;;;;;;;19.70;34.00;;;;;;679227;29;1064;-83
2022/01/24 02:26:18;;;;;;;;;;;19.70;33.90;;;;;;679613;29;828;-80
2022/01/24 02:26:40;;;;;;;;;;;19.70;33.90;;;;;;679271;29;875;-82
2022/01/24 02:27:01;;;;;;;;;;;19.70;33.90;;;;;;679477;29;859;-80
2022/01/24 02:27:23;;;;;;;;;;;19.70;33.90;;;;;;681215;29;816;-81
2022/01/24 02:27:53;;;;;;;;;;;19.70;33.90;;;;;;684371;29;970;-83
2022/01/24 02:28:16;;;;;;;;;;;19.70;33.90;;;;;;684690;29;1052;-80
2022/01/24 02:28:52;;;;;;;;;;;19.70;33.90;;;;;;684159;29;811;-83
2022/01/24 02:29:28;;;;;;;;;;;19.70;33.90;;;;;;684108;29;831;-82
2022/01/24 02:30:12;;;;;;;;;;;19.70;33.80;;;;;;680998;29;938;-81
2022/01/24 02:31:21;;;;;;;;;;;19.80;33.90;;;;;;683008;29;649;-84
2022/01/24 02:31:45;;;;;;;;;;;19.70;33.80;;;;;;683444;29;831;-84
2022/01/24 02:32:05;;;;;;;;;;;19.70;33.70;;;;;;681881;29;1322;-79
2022/01/24 02:32:26;;;;;;;;;;;19.70;33.70;;;;;;673916;29;1239;-80
2022/01/24 02:32:50;;;;;;;;;;;19.70;33.70;;;;;;673117;29;807;-83
2022/01/24 02:33:11;;;;;;;;;;;19.70;33.80;;;;;;672960;29;879;-82
2022/01/24 02:33:34;;;;;;;;;;;19.70;33.80;;;;;;672856;29;844;-84
2022/01/24 02:33:55;;;;;;;;;;;19.70;33.80;;;;;;673984;29;843;-81
2022/01/24 02:34:19;;;;;;;;;;;19.70;33.70;;;;;;678913;29;1222;-81
2022/01/24 02:34:43;;;;;;;;;;;19.70;33.80;;;;;;680765;29;1496;-81
2022/01/24 02:35:03;;;;;;;;;;;19.70;33.70;;;;;;680613;29;815;-83
2022/01/24 02:35:24;;;;;;;;;;;19.70;33.60;;;;;;677846;29;1218;-82
2022/01/24 02:35:45;;;;;;;;;;;19.70;33.60;;;;;;677918;29;854;-83
2022/01/24 02:36:07;;;;;;;;;;;19.70;33.70;;;;;;676815;29;1373;-83
2022/01/24 02:36:28;;;;;;;;;;;19.70;33.60;;;;;;675373;29;1235;-83
2022/01/24 02:36:49;;;;;;;;;;;19.70;33.70;;;;;;675258;29;1225;-83
2022/01/24 02:37:11;;;;;;;;;;;19.70;33.70;;;;;;678336;29;1636;-82
2022/01/24 02:37:32;;;;;;;;;;;19.70;33.80;;;;;;677887;29;1507;-79
2022/01/24 02:37:53;;;;;;;;;;;19.70;33.60;;;;;;678660;29;851;-81
2022/01/24 02:39:49;;;;;;;;;;;19.70;33.60;;;;;;677889;29;811;-83
2022/01/24 02:40:14;;;;;;;;;;;19.70;33.50;;;;;;677824;29;1243;-82
2022/01/24 02:40:35;;;;;;;;;;;19.70;33.60;;;;;;677843;29;1421;-82
2022/01/24 02:48:40;;;;;;;;;;;19.70;33.50;;;;;;677881;29;673;-83
2022/01/24 02:49:01;;;;;;;;;;;19.70;33.60;;;;;;677971;29;791;-81
2022/01/24 02:49:24;;;;;;;;;;;19.70;33.60;;;;;;680380;29;1116;-84
2022/01/24 02:49:44;;;;;;;;;;;19.70;33.50;;;;;;680335;29;1289;-81
2022/01/24 02:50:06;;;;;;;;;;;19.70;33.60;;;;;;680497;29;1421;-80
2022/01/24 02:51:47;;;;;;;;;;;19.70;33.70;;;;;;674674;29;654;-84
2022/01/24 02:52:13;;;;;;;;;;;19.70;33.60;;;;;;675368;29;804;-82
2022/01/24 02:52:34;;;;;;;;;;;19.70;33.60;;;;;;677852;29;1210;-81
2022/01/24 02:52:54;;;;;;;;;;;19.70;33.50;;;;;;677806;29;886;-81
2022/01/24 02:53:15;;;;;;;;;;;19.60;33.50;;;;;;677958;29;907;-81
2022/01/24 02:53:36;;;;;;;;;;;19.70;33.60;;;;;;678018;29;800;-82
2022/01/24 02:53:56;;;;;;;;;;;19.60;33.60;;;;;;677875;29;788;-82
2022/01/24 02:54:25;;;;;;;;;;;19.60;33.60;;;;;;684933;28;1268;-84
2022/01/24 02:54:47;;;;;;;;;;;19.60;33.60;;;;;;688673;28;870;-82
2022/01/24 02:55:08;;;;;;;;;;;19.70;33.70;;;;;;688664;28;1248;-83
2022/01/24 02:55:28;;;;;;;;;;;19.70;33.60;;;;;;688633;28;822;-83
2022/01/24 02:55:49;;;;;;;;;;;19.60;33.70;;;;;;688528;28;1338;-84
2022/01/24 02:56:09;;;;;;;;;;;19.70;33.70;;;;;;688543;28;835;-84
2022/01/24 02:56:30;;;;;;;;;;;19.70;33.70;;;;;;685975;28;1357;-85
2022/01/24 02:56:50;;;;;;;;;;;19.70;33.80;;;;;;685596;28;823;-84
2022/01/24 02:57:11;;;;;;;;;;;19.70;33.70;;;;;;683231;28;811;-84
2022/01/24 02:57:32;;;;;;;;;;;19.70;33.60;;;;;;683197;29;835;-84
2022/01/24 02:57:52;;;;;;;;;;;19.60;33.60;;;;;;683640;28;1233;-83
2022/01/24 02:58:13;;;;;;;;;;;19.70;33.70;;;;;;683347;28;1464;-83
2022/01/24 02:58:34;;;;;;;;;;;19.70;33.70;;;;;;686023;28;854;-84
2022/01/24 02:58:55;;;;;;;;;;;19.70;33.70;;;;;;686031;28;866;-84
2022/01/24 02:59:16;;;;;;;;;;;19.70;33.80;;;;;;685872;28;834;-84
2022/01/24 02:59:37;;;;;;;;;;;19.70;33.80;;;;;;686434;28;874;-84
2022/01/24 02:59:57;;;;;;;;;;;19.70;33.70;;;;;;688720;28;772;-85
2022/01/24 03:00:21;;;;;;;;;;;19.70;33.70;;;;;;685769;28;1465;-84
2022/01/24 03:00:42;;;;;;;;;;;19.70;33.70;;;;;;686109;28;1298;-84
2022/01/24 03:01:06;;;;;;;;;;;19.70;33.70;;;;;;686186;28;1370;-83
2022/01/24 03:01:26;;;;;;;;;;;19.70;33.60;;;;;;685810;28;1406;-82
2022/01/24 03:01:47;;;;;;;;;;;19.70;33.60;;;;;;685969;28;1899;-84
2022/01/24 03:02:08;;;;;;;;;;;19.70;33.80;;;;;;685761;28;1239;-83
2022/01/24 03:02:28;;;;;;;;;;;19.70;33.70;;;;;;686034;28;925;-85
2022/01/24 03:02:49;;;;;;;;;;;19.70;33.70;;;;;;685898;28;854;-84
2022/01/24 03:03:09;;;;;;;;;;;19.70;33.60;;;;;;685743;28;1230;-85
2022/01/24 03:03:30;;;;;;;;;;;19.70;33.70;;;;;;685909;28;874;-85
2022/01/24 03:03:50;;;;;;;;;;;19.70;33.70;;;;;;686219;28;791;-84
2022/01/24 03:04:11;;;;;;;;;;;19.70;33.70;;;;;;685707;28;1285;-84
2022/01/24 03:04:32;;;;;;;;;;;19.70;33.70;;;;;;686198;28;1258;-83
2022/01/24 03:04:54;;;;;;;;;;;19.70;33.70;;;;;;685831;28;803;-82
2022/01/24 03:05:15;;;;;;;;;;;19.70;33.70;;;;;;685820;28;874;-84
2022/01/24 03:05:35;;;;;;;;;;;19.70;33.80;;;;;;683385;28;1227;-83
2022/01/24 03:05:56;;;;;;;;;;;19.70;33.70;;;;;;683418;28;1310;-83
2022/01/24 03:06:17;;;;;;;;;;;19.70;33.70;;;;;;682947;29;1493;-83
2022/01/24 03:06:37;;;;;;;;;;;19.70;33.70;;;;;;683219;29;488;-85
2022/01/24 03:06:58;;;;;;;;;;;19.70;33.70;;;;;;683194;28;1245;-84
2022/01/24 03:07:19;;;;;;;;;;;19.70;33.70;;;;;;683055;28;1342;-83
2022/01/24 03:07:39;;;;;;;;;;;19.70;33.70;;;;;;683022;28;1327;-84
2022/01/24 03:08:00;;;;;;;;;;;19.70;33.70;;;;;;683389;29;705;-83
2022/01/24 03:08:21;;;;;;;;;;;19.60;33.60;;;;;;680416;29;1336;-84
2022/01/24 03:08:42;;;;;;;;;;;19.70;33.60;;;;;;680643;29;823;-84
2022/01/24 03:09:03;;;;;;;;;;;19.70;33.60;;;;;;681128;29;844;-84
2022/01/24 03:09:24;;;;;;;;;;;19.70;33.60;;;;;;683805;28;894;-83
2022/01/24 03:09:45;;;;;;;;;;;19.70;33.60;;;;;;685779;28;713;-83
2022/01/24 03:10:14;;;;;;;;;;;19.70;33.70;;;;;;686418;28;917;-80
2022/01/24 03:10:42;;;;;;;;;;;19.70;33.70;;;;;;685916;28;1114;-82
2022/01/24 03:11:02;;;;;;;;;;;19.70;33.60;;;;;;686014;28;862;-82
2022/01/24 03:11:27;;;;;;;;;;;19.70;33.70;;;;;;685769;28;1274;-83
2022/01/24 03:12:13;;;;;;;;;;;19.70;33.60;;;;;;685850;28;724;-83
2022/01/24 03:12:45;;;;;;;;;;;19.70;33.60;;;;;;686099;28;1216;-83
2022/01/24 03:13:47;;;;;;;;;;;19.70;33.60;;;;;;685450;28;1142;-84
2022/01/24 03:14:07;;;;;;;;;;;19.70;33.70;;;;;;685601;28;1089;-82
2022/01/24 03:14:33;;;;;;;;;;;19.70;33.60;;;;;;685884;28;906;-84
2022/01/24 03:14:54;;;;;;;;;;;19.70;33.60;;;;;;685620;28;1038;-83
2022/01/24 03:15:15;;;;;;;;;;;19.70;33.60;;;;;;688505;28;1237;-83
2022/01/24 03:15:38;;;;;;;;;;;19.70;33.60;;;;;;689076;28;905;-84
2022/01/24 03:16:01;;;;;;;;;;;19.70;33.60;;;;;;686166;28;1497;-84
2022/01/24 03:16:21;;;;;;;;;;;19.70;33.60;;;;;;683537;28;1418;-83
2022/01/24 03:16:42;;;;;;;;;;;19.70;33.60;;;;;;683382;29;906;-84
2022/01/24 03:17:06;;;;;;;;;;;19.70;33.60;;;;;;682478;29;1455;-83
2022/01/24 03:17:26;;;;;;;;;;;19.70;33.50;;;;;;680548;29;1363;-82
2022/01/24 03:17:47;;;;;;;;;;;19.70;33.50;;;;;;681743;29;902;-84
2022/01/24 03:18:07;;;;;;;;;;;19.70;33.60;;;;;;681310;29;1238;-82
2022/01/24 03:18:28;;;;;;;;;;;19.70;33.50;;;;;;682727;29;914;-82
2022/01/24 03:18:49;;;;;;;;;;;19.70;33.50;;;;;;681510;29;847;-83
2022/01/24 03:19:09;;;;;;;;;;;19.70;33.50;;;;;;683400;29;854;-81
2022/01/24 03:19:30;;;;;;;;;;;19.70;33.60;;;;;;683501;29;1039;-81
2022/01/24 03:19:50;;;;;;;;;;;19.70;33.60;;;;;;683527;29;883;-82
2022/01/24 03:20:11;;;;;;;;;;;19.70;33.60;;;;;;685995;28;1200;-83
2022/01/24 03:20:32;;;;;;;;;;;19.70;33.60;;;;;;686244;28;811;-85
2022/01/24 03:20:53;;;;;;;;;;;19.70;33.50;;;;;;686184;28;997;-84
2022/01/24 03:21:13;;;;;;;;;;;19.70;33.60;;;;;;686613;28;965;-84
2022/01/24 03:21:34;;;;;;;;;;;19.70;33.60;;;;;;686137;28;894;-83
2022/01/24 03:21:55;;;;;;;;;;;19.70;33.60;;;;;;685294;28;1954;-83
2022/01/24 03:22:15;;;;;;;;;;;19.70;33.60;;;;;;682677;29;1351;-83
2022/01/24 03:22:36;;;;;;;;;;;19.70;33.60;;;;;;685778;28;1364;-84
2022/01/24 03:22:56;;;;;;;;;;;19.70;33.80;;;;;;685631;28;878;-84
2022/01/24 03:23:18;;;;;;;;;;;19.70;33.70;;;;;;685716;28;1140;-83
2022/01/24 03:23:39;;;;;;;;;;;19.70;33.80;;;;;;685739;28;963;-83
2022/01/24 03:24:00;;;;;;;;;;;19.70;33.70;;;;;;685511;28;1464;-83
2022/01/24 03:24:20;;;;;;;;;;;19.70;33.80;;;;;;685204;28;962;-83
2022/01/24 03:24:41;;;;;;;;;;;19.70;33.80;;;;;;683544;28;846;-84
2022/01/24 03:25:01;;;;;;;;;;;19.70;33.70;;;;;;684762;28;1382;-85
2022/01/24 03:25:22;;;;;;;;;;;19.70;33.70;;;;;;683140;29;879;-83
2022/01/24 03:25:43;;;;;;;;;;;19.70;33.70;;;;;;683284;28;974;-85
2022/01/24 03:26:04;;;;;;;;;;;19.70;33.80;;;;;;683145;28;1130;-83
2022/01/24 03:26:25;;;;;;;;;;;19.70;33.80;;;;;;680307;29;1003;-83
2022/01/24 03:26:47;;;;;;;;;;;19.70;33.80;;;;;;680262;29;1275;-84